createdAt,value
2022-08-22T00:00:21.822Z,13.18
2022-08-22T00:02:45.362Z,6.20
2022-08-22T00:02:53.533Z,9.95
2022-08-22T00:03:00.667Z,9.80
2022-08-22T00:03:10.470Z,10.93
2022-08-22T00:03:12.285Z,6.25
2022-08-22T00:06:08.492Z,11.77
2022-08-22T00:09:06.094Z,9.15
2022-08-22T00:12:08.787Z,10.80
2022-08-22T00:15:03.511Z,10.10
2022-08-22T00:17:45.542Z,8.00
2022-08-22T00:20:32.813Z,10.13
2022-08-22T00:23:25.028Z,12.30
2022-08-22T00:25:59.534Z,8.68
2022-08-22T00:28:44.542Z,10.20
2022-08-22T00:31:43.776Z,9.52
2022-08-22T00:34:15.964Z,12.50
2022-08-22T00:36:53.159Z,9.27
2022-08-22T00:39:31.334Z,10.50
2022-08-22T00:42:15.906Z,11.52
2022-08-22T00:45:15.339Z,9.73
2022-08-22T00:47:52.256Z,9.27
2022-08-22T00:50:27.087Z,9.48
2022-08-22T00:53:21.650Z,9.70
2022-08-22T00:56:10.010Z,9.77
2022-08-22T00:58:51.903Z,8.25
2022-08-22T01:01:29.907Z,8.48
2022-08-22T01:04:16.031Z,9.10
2022-08-22T01:07:15.086Z,8.93
2022-08-22T01:09:44.852Z,11.05
2022-08-22T01:12:49.800Z,10.05
2022-08-22T01:15:24.624Z,10.07
2022-08-22T01:18:16.343Z,9.25
2022-08-22T01:21:20.843Z,9.88
2022-08-22T01:24:28.609Z,9.32
2022-08-22T01:30:17.011Z,9.27
2022-08-22T01:33:31.484Z,10.80
2022-08-22T01:36:23.905Z,11.23
2022-08-22T01:38:59.655Z,9.50
2022-08-22T01:41:44.916Z,8.27
2022-08-22T01:44:20.955Z,9.00
2022-08-22T01:46:54.146Z,9.57
2022-08-22T01:49:22.973Z,8.23
2022-08-22T01:52:07.930Z,11.40
2022-08-22T01:54:58.197Z,8.45
2022-08-22T01:57:26.337Z,11.73
2022-08-22T01:59:59.124Z,8.77
2022-08-22T02:02:57.298Z,9.90
2022-08-22T02:05:27.646Z,8.45
2022-08-22T02:08:02.992Z,11.13
2022-08-22T02:11:00.456Z,10.65
2022-08-22T02:13:50.143Z,8.48
2022-08-22T02:16:38.642Z,8.68
2022-08-22T02:19:14.725Z,8.85
2022-08-22T02:22:09.419Z,9.23
2022-08-22T02:25:04.382Z,10.27
2022-08-22T02:27:46.602Z,12.02
2022-08-22T02:30:20.343Z,10.73
2022-08-22T02:33:08.545Z,10.60
2022-08-22T02:35:57.493Z,14.00
2022-08-22T02:38:36.493Z,8.40
2022-08-22T02:41:43.948Z,9.60
2022-08-22T02:44:28.515Z,8.63
2022-08-22T02:47:09.770Z,8.48
2022-08-22T02:49:48.110Z,9.05
2022-08-22T02:52:25.135Z,9.75
2022-08-22T02:55:13.245Z,9.15
2022-08-22T02:57:52.592Z,13.10
2022-08-22T03:00:31.485Z,11.88
2022-08-22T03:03:14.904Z,12.80
2022-08-22T03:05:49.309Z,9.05
2022-08-22T03:08:24.694Z,13.43
2022-08-22T03:10:54.675Z,11.43
2022-08-22T03:13:35.825Z,13.32
2022-08-22T03:16:36.989Z,14.15
2022-08-22T03:19:18.731Z,7.13
2022-08-22T03:21:55.597Z,7.95
2022-08-22T03:24:38.606Z,9.38
2022-08-22T03:27:27.813Z,9.80
2022-08-22T03:30:12.242Z,10.73
2022-08-22T03:32:47.814Z,11.73
2022-08-22T03:35:46.166Z,15.25
2022-08-22T03:38:33.569Z,13.00
2022-08-22T03:41:18.160Z,10.38
2022-08-22T03:44:17.833Z,10.70
2022-08-22T03:47:12.395Z,9.98
2022-08-22T03:49:45.197Z,12.05
2022-08-22T03:53:00.351Z,13.80
2022-08-22T03:55:39.557Z,13.50
2022-08-22T03:58:39.314Z,20.42
2022-08-22T04:01:42.787Z,30.35
2022-08-22T04:04:21.362Z,32.23
2022-08-22T04:06:57.514Z,18.20
2022-08-22T04:09:37.615Z,19.60
2022-08-22T04:12:39.234Z,26.27
2022-08-22T04:15:29.735Z,34.03
2022-08-22T04:18:19.288Z,29.38
2022-08-22T04:21:16.278Z,25.58
2022-08-22T04:24:31.107Z,31.17
2022-08-22T04:27:20.938Z,21.58
2022-08-22T04:30:14.310Z,23.50
2022-08-22T04:32:43.358Z,22.73
2022-08-22T04:35:32.334Z,12.82
2022-08-22T04:38:01.316Z,15.40
2022-08-22T04:40:43.340Z,19.92
2022-08-22T04:43:35.932Z,17.95
2022-08-22T04:46:02.672Z,16.08
2022-08-22T04:48:38.649Z,26.55
2022-08-22T04:51:25.318Z,20.98
2022-08-22T04:54:29.456Z,14.38
2022-08-22T04:57:32.574Z,14.98
2022-08-22T05:00:06.074Z,9.60
2022-08-22T05:05:14.151Z,8.95
2022-08-22T05:07:53.537Z,13.77
2022-08-22T05:10:26.046Z,15.32
2022-08-22T05:13:02.721Z,20.05
2022-08-22T05:15:38.485Z,23.83
2022-08-22T05:18:09.921Z,27.90
2022-08-22T05:20:40.127Z,29.67
2022-08-22T05:23:17.597Z,81.07
2022-08-22T05:25:49.557Z,175.52
2022-08-22T05:28:34.398Z,74.47
2022-08-22T05:31:18.531Z,46.72
2022-08-22T05:33:55.057Z,73.70
2022-08-22T05:36:25.407Z,51.47
2022-08-22T05:39:07.679Z,86.07
2022-08-22T05:41:37.889Z,77.38
2022-08-22T05:44:13.683Z,50.35
2022-08-22T05:46:46.831Z,16.00
2022-08-22T05:49:40.263Z,39.38
2022-08-22T05:52:22.682Z,12.13
2022-08-22T05:55:03.211Z,28.75
2022-08-22T05:57:38.121Z,33.45
2022-08-22T06:00:12.314Z,50.58
2022-08-22T06:03:09.314Z,29.98
2022-08-22T06:05:39.973Z,33.58
2022-08-22T06:08:22.513Z,30.05
2022-08-22T06:10:56.900Z,21.08
2022-08-22T06:13:50.457Z,33.28
2022-08-22T06:16:20.455Z,24.95
2022-08-22T06:18:50.455Z,21.58
2022-08-22T06:21:41.897Z,36.67
2022-08-22T06:24:16.063Z,97.20
2022-08-22T06:26:48.818Z,27.55
2022-08-22T06:29:39.473Z,108.82
2022-08-22T06:32:15.866Z,76.57
2022-08-22T06:34:45.345Z,44.70
2022-08-22T06:37:37.387Z,51.20
2022-08-22T06:40:07.791Z,13.77
2022-08-22T06:42:40.861Z,16.67
2022-08-22T06:45:25.279Z,34.58
2022-08-22T06:48:06.270Z,38.28
2022-08-22T06:50:37.503Z,39.45
2022-08-22T06:53:06.485Z,24.73
2022-08-22T06:55:36.428Z,14.95
2022-08-22T06:58:06.348Z,16.85
2022-08-22T07:00:35.173Z,14.18
2022-08-22T07:03:15.070Z,13.15
2022-08-22T07:05:42.924Z,13.52
2022-08-22T07:08:13.592Z,13.50
2022-08-22T07:10:43.495Z,14.82
2022-08-22T07:13:16.255Z,14.80
2022-08-22T07:15:43.518Z,12.30
2022-08-22T07:18:19.093Z,14.27
2022-08-22T07:20:59.195Z,13.10
2022-08-22T07:23:58.355Z,11.75
2022-08-22T07:26:31.554Z,16.42
2022-08-22T07:29:01.789Z,12.93
2022-08-22T07:31:46.519Z,11.63
2022-08-22T07:34:27.838Z,12.13
2022-08-22T07:37:13.191Z,12.98
2022-08-22T07:39:56.354Z,9.98
2022-08-22T07:42:36.049Z,10.70
2022-08-22T07:45:11.506Z,11.18
2022-08-22T07:48:03.064Z,14.70
2022-08-22T07:50:34.868Z,10.20
2022-08-22T07:53:30.529Z,9.60
2022-08-22T07:56:00.089Z,12.85
2022-08-22T07:58:29.477Z,12.57
2022-08-22T08:00:58.053Z,9.55
2022-08-22T08:03:29.818Z,7.30
2022-08-22T08:05:57.137Z,8.88
2022-08-22T08:08:38.683Z,11.07
2022-08-22T08:11:10.579Z,10.43
2022-08-22T08:13:45.054Z,11.25
2022-08-22T08:16:21.674Z,12.85
2022-08-22T08:18:50.986Z,11.82
2022-08-22T08:21:42.859Z,12.27
2022-08-22T08:24:15.751Z,9.77
2022-08-22T08:27:08.010Z,9.68
2022-08-22T08:29:37.001Z,10.85
2022-08-22T08:32:09.278Z,12.45
2022-08-22T08:34:38.956Z,8.05
2022-08-22T08:37:17.096Z,9.75
2022-08-22T08:39:50.586Z,6.82
2022-08-22T08:42:58.427Z,6.78
2022-08-22T08:46:02.320Z,7.97
2022-08-22T08:48:57.619Z,7.43
2022-08-22T08:52:15.698Z,8.35
2022-08-22T08:54:56.857Z,6.13
2022-08-22T08:58:07.091Z,6.72
2022-08-22T09:00:51.292Z,4.57
2022-08-22T09:03:51.410Z,6.00
2022-08-22T09:06:38.379Z,6.45
2022-08-22T09:09:52.424Z,4.53
2022-08-22T09:12:59.782Z,5.22
2022-08-22T09:16:04.760Z,7.78
2022-08-22T09:18:41.187Z,4.90
2022-08-22T09:21:31.515Z,7.68
2022-08-22T09:24:42.844Z,3.63
2022-08-22T09:27:18.449Z,5.88
2022-08-22T09:29:57.118Z,4.63
2022-08-22T09:32:52.455Z,5.25
2022-08-22T09:35:34.748Z,5.18
2022-08-22T09:38:25.839Z,5.82
2022-08-22T09:41:19.469Z,4.72
2022-08-22T09:44:00.729Z,5.40
2022-08-22T09:46:37.141Z,4.47
2022-08-22T09:49:21.678Z,2.90
2022-08-22T09:52:34.027Z,5.28
2022-08-22T09:55:01.660Z,4.90
2022-08-22T09:57:51.048Z,9.80
2022-08-22T10:00:31.844Z,5.18
2022-08-22T10:03:03.646Z,3.95
2022-08-22T10:05:47.855Z,4.85
2022-08-22T10:08:26.239Z,6.50
2022-08-22T10:11:18.858Z,7.47
2022-08-22T10:13:57.427Z,6.20
2022-08-22T10:16:52.035Z,5.00
2022-08-22T10:19:39.931Z,6.05
2022-08-22T10:22:37.788Z,6.90
2022-08-22T10:25:24.403Z,6.80
2022-08-22T10:28:03.338Z,6.22
2022-08-22T10:31:17.831Z,9.65
2022-08-22T10:37:10.333Z,4.88
2022-08-22T10:39:56.475Z,5.68
2022-08-22T10:42:27.878Z,6.32
2022-08-22T10:45:23.746Z,5.38
2022-08-22T10:48:08.612Z,6.05
2022-08-22T10:50:47.695Z,5.53
2022-08-22T10:53:35.855Z,5.00
2022-08-22T10:56:27.501Z,4.55
2022-08-22T10:59:04.166Z,6.72
2022-08-22T11:01:41.949Z,4.68
2022-08-22T11:04:28.565Z,5.78
2022-08-22T11:07:21.903Z,6.85
2022-08-22T11:09:59.863Z,4.72
2022-08-22T11:12:37.279Z,5.15
2022-08-22T11:15:33.257Z,4.30
2022-08-22T11:18:20.472Z,4.85
2022-08-22T11:21:00.734Z,3.83
2022-08-22T11:23:58.147Z,5.05
2022-08-22T11:26:47.336Z,5.78
2022-08-22T11:29:35.329Z,5.32
2022-08-22T11:32:23.099Z,4.50
2022-08-22T11:35:01.512Z,3.60
2022-08-22T11:38:03.105Z,5.20
2022-08-22T11:40:47.875Z,6.68
2022-08-22T11:43:32.910Z,6.53
2022-08-22T11:46:19.909Z,5.65
2022-08-22T11:49:03.415Z,5.93
2022-08-22T11:52:03.458Z,4.45
2022-08-22T11:54:36.462Z,4.05
2022-08-22T11:57:17.366Z,5.38
2022-08-22T11:59:50.379Z,4.45
2022-08-22T12:02:56.997Z,4.70
2022-08-22T12:05:46.475Z,5.90
2022-08-22T12:08:21.212Z,4.00
2022-08-22T12:11:16.670Z,4.13
2022-08-22T12:14:05.997Z,4.93
2022-08-22T12:16:47.403Z,3.55
2022-08-22T12:19:26.470Z,4.95
2022-08-22T12:22:03.046Z,4.60
2022-08-22T12:25:07.046Z,2.70
2022-08-22T12:27:36.642Z,3.97
2022-08-22T12:30:14.202Z,6.50
2022-08-22T12:33:00.719Z,4.97
2022-08-22T12:35:38.189Z,3.55
2022-08-22T12:38:27.960Z,3.60
2022-08-22T12:41:35.216Z,5.47
2022-08-22T12:44:17.638Z,3.75
2022-08-22T12:47:09.204Z,5.07
2022-08-22T12:49:49.873Z,3.80
2022-08-22T12:53:02.978Z,4.25
2022-08-22T12:55:50.471Z,4.13
2022-08-22T12:58:33.970Z,4.13
2022-08-22T13:01:06.276Z,4.73
2022-08-22T13:03:56.115Z,4.53
2022-08-22T13:06:35.124Z,4.53
2022-08-22T13:09:19.785Z,8.45
2022-08-22T13:12:04.637Z,4.80
2022-08-22T13:14:34.130Z,5.10
2022-08-22T13:17:10.198Z,5.65
2022-08-22T13:19:59.721Z,5.53
2022-08-22T13:22:29.573Z,4.57
2022-08-22T13:25:08.655Z,5.70
2022-08-22T13:27:50.967Z,6.30
2022-08-22T13:30:42.248Z,9.97
2022-08-22T13:33:22.519Z,7.93
2022-08-22T13:36:04.558Z,6.53
2022-08-22T13:38:46.322Z,6.32
2022-08-22T13:41:27.123Z,4.93
2022-08-22T13:44:08.934Z,6.03
2022-08-22T13:46:52.721Z,4.35
2022-08-22T13:49:52.581Z,4.93
2022-08-22T13:52:34.079Z,9.05
2022-08-22T13:55:27.634Z,4.80
2022-08-22T13:58:02.366Z,8.65
2022-08-22T14:00:57.276Z,4.32
2022-08-22T14:03:35.014Z,4.23
2022-08-22T14:06:35.305Z,5.68
2022-08-22T14:09:17.388Z,3.50
2022-08-22T14:12:18.447Z,7.63
2022-08-22T14:14:52.464Z,4.20
2022-08-22T14:17:24.273Z,4.82
2022-08-22T14:20:02.114Z,7.50
2022-08-22T14:22:35.883Z,5.53
2022-08-22T14:25:19.435Z,5.43
2022-08-22T14:27:57.687Z,7.15
2022-08-22T14:30:32.888Z,5.22
2022-08-22T14:33:19.878Z,6.25
2022-08-22T14:36:04.393Z,8.20
2022-08-22T14:38:39.391Z,5.55
2022-08-22T14:41:52.998Z,5.35
2022-08-22T14:44:25.278Z,5.28
2022-08-22T14:47:04.273Z,7.43
2022-08-22T14:49:56.271Z,5.57
2022-08-22T14:52:34.427Z,3.92
2022-08-22T14:55:26.065Z,11.90
2022-08-22T14:58:03.322Z,6.10
2022-08-22T15:00:37.285Z,6.90
2022-08-22T15:03:13.762Z,5.40
2022-08-22T15:05:53.046Z,6.28
2022-08-22T15:08:24.263Z,4.95
2022-08-22T15:11:20.506Z,5.35
2022-08-22T15:14:21.347Z,4.75
2022-08-22T15:16:57.683Z,6.05
2022-08-22T15:19:27.241Z,5.90
2022-08-22T15:22:16.484Z,6.82
2022-08-22T15:24:54.991Z,4.07
2022-08-22T15:27:25.450Z,6.63
2022-08-22T15:29:59.627Z,5.75
2022-08-22T15:32:30.880Z,4.60
2022-08-22T15:35:14.820Z,6.68
2022-08-22T15:37:56.330Z,5.32
2022-08-22T15:40:29.400Z,5.93
2022-08-22T15:43:00.176Z,6.05
2022-08-22T15:45:38.594Z,5.55
2022-08-22T15:48:11.248Z,5.50
2022-08-22T15:51:00.203Z,6.85
2022-08-22T15:53:50.818Z,5.82
2022-08-22T15:56:27.419Z,4.50
2022-08-22T15:59:53.745Z,9.93
2022-08-22T16:02:30.487Z,5.25
2022-08-22T16:05:25.021Z,6.35
2022-08-22T16:07:57.868Z,5.68
2022-08-22T16:10:24.806Z,4.85
2022-08-22T16:13:33.801Z,5.25
2022-08-22T16:16:12.304Z,5.05
2022-08-22T16:18:45.276Z,7.53
2022-08-22T16:21:22.888Z,6.25
2022-08-22T16:23:56.680Z,6.75
2022-08-22T16:26:29.529Z,4.43
2022-08-22T16:28:59.484Z,4.75
2022-08-22T16:31:32.611Z,5.63
2022-08-22T16:34:22.672Z,6.28
2022-08-22T16:37:14.575Z,5.47
2022-08-22T16:39:43.140Z,8.77
2022-08-22T16:42:15.771Z,7.38
2022-08-22T16:44:47.687Z,5.22
2022-08-22T16:47:19.731Z,6.05
2022-08-22T16:49:49.206Z,6.72
2022-08-22T16:52:24.727Z,6.03
2022-08-22T16:55:03.754Z,6.38
2022-08-22T16:58:10.081Z,6.20
2022-08-22T17:00:48.743Z,7.20
2022-08-22T17:03:41.079Z,6.05
2022-08-22T17:06:32.276Z,6.60
2022-08-22T17:09:27.053Z,6.20
2022-08-22T17:12:13.563Z,6.35
2022-08-22T17:14:54.704Z,8.63
2022-08-22T17:17:49.500Z,7.78
2022-08-22T17:20:43.929Z,6.45
2022-08-22T17:23:17.077Z,8.98
2022-08-22T17:25:52.749Z,6.47
2022-08-22T17:28:41.106Z,7.88
2022-08-22T17:31:15.624Z,10.02
2022-08-22T17:34:12.544Z,6.40
2022-08-22T17:36:56.963Z,7.43
2022-08-22T17:39:42.202Z,6.43
2022-08-22T17:42:41.358Z,9.13
2022-08-22T17:45:22.420Z,8.20
2022-08-22T17:48:20.596Z,8.73
2022-08-22T17:51:10.968Z,8.00
2022-08-22T17:53:52.710Z,8.88
2022-08-22T17:56:25.772Z,8.45
2022-08-22T17:59:05.115Z,8.32
2022-08-22T18:01:41.215Z,6.68
2022-08-22T18:04:19.112Z,7.32
2022-08-22T18:06:56.556Z,7.93
2022-08-22T18:09:44.019Z,7.95
2022-08-22T18:12:33.674Z,6.85
2022-08-22T18:15:33.896Z,6.43
2022-08-22T18:18:20.999Z,5.80
2022-08-22T18:21:02.443Z,8.63
2022-08-22T18:23:40.226Z,8.80
2022-08-22T18:26:33.785Z,9.90
2022-08-22T18:29:09.787Z,6.83
2022-08-22T18:31:55.035Z,7.60
2022-08-22T18:34:54.072Z,6.93
2022-08-22T18:37:32.938Z,7.10
2022-08-22T18:40:13.437Z,5.72
2022-08-22T18:43:05.873Z,6.60
2022-08-22T18:45:48.012Z,8.70
2022-08-22T18:48:59.391Z,9.45
2022-08-22T18:54:06.790Z,9.40
2022-08-22T18:56:58.116Z,6.47
2022-08-22T18:59:43.594Z,10.38
2022-08-22T19:02:22.236Z,8.00
2022-08-22T19:05:32.694Z,5.93
2022-08-22T19:08:27.856Z,6.07
2022-08-22T19:11:18.951Z,6.45
2022-08-22T19:14:09.870Z,6.20
2022-08-22T19:16:48.908Z,5.78
2022-08-22T19:19:23.070Z,8.68
2022-08-22T19:22:20.795Z,6.25
2022-08-22T19:25:26.439Z,7.32
2022-08-22T19:28:11.557Z,7.45
2022-08-22T19:30:47.510Z,9.80
2022-08-22T19:33:29.268Z,6.13
2022-08-22T19:36:09.996Z,9.35
2022-08-22T19:38:57.396Z,6.45
2022-08-22T19:41:59.689Z,8.68
2022-08-22T19:44:26.407Z,6.05
2022-08-22T19:47:07.217Z,8.18
2022-08-22T19:49:45.023Z,10.70
2022-08-22T19:52:44.455Z,6.70
2022-08-22T19:55:22.363Z,6.53
2022-08-22T19:57:52.063Z,8.35
2022-08-22T20:00:41.090Z,7.25
2022-08-22T20:03:17.231Z,6.10
2022-08-22T20:06:43.084Z,6.68
2022-08-22T20:09:29.287Z,6.72
2022-08-22T20:12:01.678Z,8.07
2022-08-22T20:14:30.242Z,7.20
2022-08-22T20:17:06.540Z,8.48
2022-08-22T20:20:16.449Z,6.53
2022-08-22T20:22:39.179Z,8.05
2022-08-22T20:25:43.370Z,8.18
2022-08-22T20:28:13.687Z,9.10
2022-08-22T20:30:44.579Z,8.18
2022-08-22T20:33:21.618Z,6.97
2022-08-22T20:35:52.831Z,8.73
2022-08-22T20:38:25.943Z,9.25
2022-08-22T20:41:13.511Z,7.15
2022-08-22T20:43:51.469Z,6.93
2022-08-22T20:46:46.113Z,9.77
2022-08-22T20:49:34.568Z,7.72
2022-08-22T20:52:06.194Z,7.82
2022-08-22T20:54:37.965Z,9.43
2022-08-22T20:57:17.174Z,8.82
2022-08-22T20:59:55.688Z,7.72
2022-08-22T21:02:36.252Z,6.57
2022-08-22T21:05:12.624Z,11.30
2022-08-22T21:07:43.065Z,9.00
2022-08-22T21:10:34.312Z,7.30
2022-08-22T21:13:05.799Z,7.65
2022-08-22T21:15:36.350Z,12.27
2022-08-22T21:18:03.591Z,7.93
2022-08-22T21:20:34.246Z,7.35
2022-08-22T21:23:08.811Z,8.68
2022-08-22T21:25:56.631Z,6.68
2022-08-22T21:28:38.047Z,8.02
2022-08-22T21:31:25.459Z,8.57
2022-08-22T21:33:55.072Z,11.07
2022-08-22T21:36:25.227Z,8.82
2022-08-22T21:38:59.544Z,9.05
2022-08-22T21:41:31.942Z,8.43
2022-08-22T21:44:26.947Z,7.47
2022-08-22T21:46:54.728Z,8.27
2022-08-22T21:49:27.568Z,8.48
2022-08-22T21:51:54.468Z,8.27
2022-08-22T21:54:31.260Z,8.98
2022-08-22T21:57:14.310Z,9.77
2022-08-22T21:59:52.006Z,9.65
2022-08-22T22:02:41.056Z,7.15
2022-08-22T22:05:11.659Z,8.25
2022-08-22T22:07:44.693Z,8.98
2022-08-22T22:10:14.450Z,8.05
2022-08-22T22:12:42.794Z,8.70
2022-08-22T22:15:13.870Z,9.55
2022-08-22T22:17:40.654Z,8.02
2022-08-22T22:20:08.758Z,8.57
2022-08-22T22:22:37.068Z,10.43
2022-08-22T22:25:40.233Z,10.70
2022-08-22T22:28:14.903Z,8.73
2022-08-22T22:30:42.630Z,10.60
2022-08-22T22:33:10.150Z,8.18
2022-08-22T22:35:39.150Z,8.52
2022-08-22T22:38:07.120Z,7.70
2022-08-22T22:40:34.069Z,8.40
2022-08-22T22:43:00.941Z,10.05
2022-08-22T22:45:27.768Z,7.75
2022-08-22T22:47:54.536Z,9.48
2022-08-22T22:50:21.667Z,8.98
2022-08-22T22:52:48.584Z,8.25
2022-08-22T22:55:24.683Z,7.95
2022-08-22T22:57:58.804Z,9.60
2022-08-22T23:00:29.158Z,8.75
2022-08-22T23:03:00.465Z,7.40
2022-08-22T23:05:28.462Z,7.22
2022-08-22T23:07:55.482Z,7.25
2022-08-22T23:10:22.384Z,7.65
2022-08-22T23:12:49.283Z,10.68
2022-08-22T23:15:16.697Z,12.25
2022-08-22T23:17:43.797Z,10.20
2022-08-22T23:20:11.320Z,8.40
2022-08-22T23:22:38.152Z,7.88
2022-08-22T23:25:05.427Z,7.90
2022-08-22T23:27:32.297Z,9.50
2022-08-22T23:29:59.299Z,10.50
2022-08-22T23:32:26.108Z,8.95
2022-08-22T23:34:53.593Z,7.95
2022-08-22T23:37:22.031Z,7.07
2022-08-22T23:39:49.495Z,8.80
2022-08-22T23:42:18.039Z,7.80
2022-08-22T23:44:45.853Z,10.25
2022-08-22T23:47:15.261Z,8.50
2022-08-22T23:49:43.208Z,8.05
2022-08-22T23:52:12.455Z,7.03
2022-08-22T23:54:39.366Z,9.05
2022-08-22T23:57:11.468Z,8.07
2022-08-22T23:59:46.441Z,10.23
